createdAt,value
2023-11-30T00:01:25.602Z,87.26
2023-11-30T00:03:53.129Z,86.84
2023-11-30T00:06:20.807Z,87.91
2023-11-30T00:08:48.303Z,86.58
2023-11-30T00:11:15.706Z,87.62
2023-11-30T00:13:43.179Z,86.61
2023-11-30T00:16:11.399Z,86.94
2023-11-30T00:18:38.722Z,87.40
2023-11-30T00:21:06.974Z,86.65
2023-11-30T00:23:36.436Z,87.34
2023-11-30T00:26:03.925Z,86.68
2023-11-30T00:28:31.377Z,87.09
2023-11-30T00:30:58.740Z,87.57
2023-11-30T00:33:26.174Z,86.73
2023-11-30T00:35:53.734Z,86.74
2023-11-30T00:38:21.062Z,87.39
2023-11-30T00:40:48.480Z,87.73
2023-11-30T00:43:15.871Z,87.67
2023-11-30T00:45:43.517Z,86.98
2023-11-30T00:48:10.897Z,86.55
2023-11-30T00:50:38.472Z,87.10
2023-11-30T00:53:05.825Z,86.84
2023-11-30T00:55:33.098Z,86.75
2023-11-30T00:58:00.407Z,86.77
2023-11-30T01:00:27.829Z,87.29
2023-11-30T01:02:55.205Z,86.45
2023-11-30T01:05:22.871Z,87.88
2023-11-30T01:07:50.174Z,87.68
2023-11-30T01:10:17.514Z,87.10
2023-11-30T01:12:44.944Z,87.92
2023-11-30T01:15:12.302Z,87.55
2023-11-30T01:17:39.741Z,87.92
2023-11-30T01:20:07.871Z,87.95
2023-11-30T01:22:35.155Z,87.38
2023-11-30T01:25:02.468Z,87.99
2023-11-30T01:27:29.988Z,88.20
2023-11-30T01:29:57.385Z,87.76
2023-11-30T01:32:24.754Z,87.43
2023-11-30T01:34:52.098Z,87.08
2023-11-30T01:37:19.401Z,87.82
2023-11-30T01:39:47.838Z,88.39
2023-11-30T01:42:15.661Z,88.14
2023-11-30T01:44:42.838Z,88.04
2023-11-30T01:47:10.295Z,87.05
2023-11-30T01:49:37.645Z,87.95
2023-11-30T01:52:05.991Z,87.23
2023-11-30T01:54:33.615Z,87.68
2023-11-30T01:57:01.244Z,87.73
2023-11-30T01:59:28.734Z,86.72
2023-11-30T02:01:56.224Z,87.41
2023-11-30T02:04:23.994Z,87.83
2023-11-30T02:06:51.437Z,87.24
2023-11-30T02:09:18.829Z,87.32
2023-11-30T02:11:46.431Z,87.99
2023-11-30T02:14:13.701Z,87.59
2023-11-30T02:16:41.100Z,87.92
2023-11-30T02:19:08.496Z,87.57
2023-11-30T02:21:35.811Z,87.73
2023-11-30T02:24:03.541Z,87.73
2023-11-30T02:26:30.774Z,87.07
2023-11-30T02:28:58.008Z,86.73
2023-11-30T02:31:25.260Z,88.14
2023-11-30T02:33:52.645Z,87.46
2023-11-30T02:36:20.049Z,87.42
2023-11-30T02:38:47.292Z,86.93
2023-11-30T02:41:14.839Z,87.35
2023-11-30T02:43:42.146Z,86.87
2023-11-30T02:46:12.485Z,87.55
2023-11-30T02:48:40.060Z,86.90
2023-11-30T02:51:07.614Z,87.01
2023-11-30T02:53:34.921Z,87.10
2023-11-30T02:56:02.320Z,87.34
2023-11-30T02:58:29.745Z,87.26
2023-11-30T03:00:57.087Z,87.46
2023-11-30T03:03:24.479Z,87.95
2023-11-30T03:05:51.891Z,87.46
2023-11-30T03:08:19.230Z,87.90
2023-11-30T03:10:46.592Z,87.86
2023-11-30T03:13:13.938Z,88.54
2023-11-30T03:15:48.530Z,87.51
2023-11-30T03:18:16.157Z,87.97
2023-11-30T03:20:43.537Z,87.16
2023-11-30T03:23:10.960Z,87.60
2023-11-30T03:25:40.644Z,87.46
2023-11-30T03:28:08.004Z,88.62
2023-11-30T03:30:35.438Z,87.73
2023-11-30T03:33:03.000Z,87.30
2023-11-30T03:35:30.446Z,87.33
2023-11-30T03:37:57.963Z,87.53
2023-11-30T03:40:25.399Z,87.42
2023-11-30T03:42:52.926Z,87.76
2023-11-30T03:45:21.438Z,88.27
2023-11-30T03:47:48.804Z,87.40
2023-11-30T03:50:16.124Z,87.00
2023-11-30T03:52:43.544Z,87.74
2023-11-30T03:55:11.020Z,87.45
2023-11-30T03:57:38.352Z,88.13
2023-11-30T04:00:09.096Z,87.55
2023-11-30T04:02:36.481Z,88.35
2023-11-30T04:05:05.358Z,88.11
2023-11-30T04:07:33.283Z,88.04
2023-11-30T04:10:00.621Z,87.89
2023-11-30T04:12:27.930Z,88.72
2023-11-30T04:14:55.404Z,87.41
2023-11-30T04:17:22.991Z,88.52
2023-11-30T04:19:50.641Z,87.72
2023-11-30T04:22:18.322Z,87.32
2023-11-30T04:24:45.871Z,88.76
2023-11-30T04:27:13.226Z,87.49
2023-11-30T04:29:40.558Z,88.56
2023-11-30T04:32:08.217Z,88.24
2023-11-30T04:34:35.771Z,87.82
2023-11-30T04:37:03.192Z,88.45
2023-11-30T04:39:30.636Z,87.48
2023-11-30T04:41:58.104Z,87.06
2023-11-30T04:44:30.114Z,88.19
2023-11-30T04:46:58.332Z,87.02
2023-11-30T04:49:25.666Z,86.82
2023-11-30T04:51:53.047Z,87.32
2023-11-30T04:54:20.365Z,87.83
2023-11-30T04:56:47.689Z,87.28
2023-11-30T04:59:15.082Z,88.42
2023-11-30T05:01:42.673Z,88.18
2023-11-30T05:04:10.745Z,87.20
2023-11-30T05:06:38.243Z,88.05
2023-11-30T05:09:07.186Z,87.93
2023-11-30T05:11:34.526Z,87.41
2023-11-30T05:14:01.871Z,88.37
2023-11-30T05:16:29.175Z,88.36
2023-11-30T05:18:56.483Z,87.86
2023-11-30T05:21:23.932Z,88.18
2023-11-30T05:23:52.660Z,87.58
2023-11-30T05:26:19.925Z,87.81
2023-11-30T05:28:47.616Z,88.42
2023-11-30T05:31:14.879Z,87.71
2023-11-30T05:33:42.202Z,88.21
2023-11-30T05:36:10.202Z,87.69
2023-11-30T05:38:37.594Z,87.93
2023-11-30T05:41:05.013Z,88.26
2023-11-30T05:43:36.219Z,87.29
2023-11-30T05:46:06.569Z,87.46
2023-11-30T05:48:35.157Z,88.16
2023-11-30T05:51:02.685Z,87.54
2023-11-30T05:53:30.059Z,88.68
2023-11-30T05:55:57.421Z,88.51
2023-11-30T05:58:24.749Z,88.18
2023-11-30T06:00:52.101Z,87.86
2023-11-30T06:03:19.571Z,88.80
2023-11-30T06:05:46.920Z,87.85
2023-11-30T06:08:14.275Z,87.68
2023-11-30T06:10:41.663Z,87.82
2023-11-30T06:13:09.303Z,88.16
2023-11-30T06:15:36.787Z,88.75
2023-11-30T06:18:04.276Z,88.16
2023-11-30T06:20:32.705Z,87.36
2023-11-30T06:23:00.237Z,87.57
2023-11-30T06:25:27.703Z,87.77
2023-11-30T06:27:54.980Z,87.53
2023-11-30T06:30:22.382Z,88.20
2023-11-30T06:32:49.778Z,88.93
2023-11-30T06:35:17.136Z,87.82
2023-11-30T06:37:44.558Z,88.08
2023-11-30T06:40:12.186Z,88.16
2023-11-30T06:42:39.520Z,87.46
2023-11-30T06:45:07.367Z,88.08
2023-11-30T06:47:34.599Z,87.27
2023-11-30T06:50:02.133Z,88.19
2023-11-30T06:52:29.411Z,87.75
2023-11-30T06:54:56.918Z,87.29
2023-11-30T06:57:25.418Z,87.36
2023-11-30T06:59:54.208Z,87.42
2023-11-30T07:02:22.263Z,87.67
2023-11-30T07:04:50.241Z,87.46
2023-11-30T07:07:27.549Z,87.74
2023-11-30T07:09:59.921Z,87.50
2023-11-30T07:12:27.269Z,88.17
2023-11-30T07:14:55.049Z,87.59
2023-11-30T07:17:25.542Z,88.84
2023-11-30T07:19:54.068Z,87.79
2023-11-30T07:22:23.595Z,88.15
2023-11-30T07:24:51.122Z,87.91
2023-11-30T07:27:19.803Z,87.71
2023-11-30T07:29:48.015Z,88.49
2023-11-30T07:32:19.184Z,87.58
2023-11-30T07:34:46.876Z,88.42
2023-11-30T07:37:20.904Z,87.96
2023-11-30T07:39:48.246Z,89.01
2023-11-30T07:42:28.676Z,88.07
2023-11-30T07:45:01.511Z,88.60
2023-11-30T07:47:29.693Z,87.96
2023-11-30T07:49:57.025Z,88.56
2023-11-30T07:52:24.402Z,88.30
2023-11-30T07:54:51.856Z,88.22
2023-11-30T07:57:19.705Z,88.42
2023-11-30T07:59:47.967Z,87.42
2023-11-30T08:02:17.765Z,88.60
2023-11-30T08:04:47.366Z,89.05
2023-11-30T08:07:14.834Z,88.46
2023-11-30T08:09:42.240Z,88.87
2023-11-30T08:12:09.741Z,88.37
2023-11-30T08:14:37.098Z,87.84
2023-11-30T08:17:06.471Z,88.50
2023-11-30T08:19:34.453Z,88.56
2023-11-30T08:22:01.976Z,88.10
2023-11-30T08:24:30.659Z,88.54
2023-11-30T08:26:58.493Z,89.23
2023-11-30T08:29:25.743Z,87.83
2023-11-30T08:31:53.245Z,89.13
2023-11-30T08:34:20.665Z,88.14
2023-11-30T08:36:49.236Z,89.15
2023-11-30T08:39:25.068Z,88.82
2023-11-30T08:41:54.963Z,88.32
2023-11-30T08:44:25.117Z,89.21
2023-11-30T08:46:53.506Z,88.79
2023-11-30T08:49:21.044Z,88.91
2023-11-30T08:51:48.418Z,88.57
2023-11-30T08:54:15.825Z,88.61
2023-11-30T08:56:43.324Z,89.16
2023-11-30T08:59:10.844Z,89.61
2023-11-30T09:01:38.319Z,89.09
2023-11-30T09:04:06.608Z,89.12
2023-11-30T09:06:34.969Z,89.29
2023-11-30T09:09:03.064Z,88.77
2023-11-30T09:11:31.839Z,89.41
2023-11-30T09:13:59.314Z,89.17
2023-11-30T09:16:27.032Z,89.73
2023-11-30T09:18:55.790Z,89.53
2023-11-30T09:21:25.468Z,89.09
2023-11-30T09:23:53.964Z,89.37
2023-11-30T09:26:23.426Z,89.17
2023-11-30T09:28:51.017Z,89.68
2023-11-30T09:31:18.574Z,89.54
2023-11-30T09:33:45.982Z,89.47
2023-11-30T09:36:14.431Z,89.25
2023-11-30T09:38:42.691Z,89.46
2023-11-30T09:41:14.622Z,89.07
2023-11-30T09:43:41.998Z,89.46
2023-11-30T09:46:10.915Z,89.54
2023-11-30T09:48:38.797Z,88.99
2023-11-30T09:51:06.682Z,89.38
2023-11-30T09:53:34.393Z,89.05
2023-11-30T09:56:01.773Z,89.08
2023-11-30T09:58:29.329Z,89.46
2023-11-30T10:00:56.936Z,89.82
2023-11-30T10:03:34.931Z,89.14
2023-11-30T10:06:02.717Z,89.63
2023-11-30T10:08:30.080Z,89.57
2023-11-30T10:10:57.529Z,88.78
2023-11-30T10:13:26.807Z,90.05
2023-11-30T10:15:54.636Z,88.84
2023-11-30T10:18:22.400Z,88.88
2023-11-30T10:20:49.993Z,89.29
2023-11-30T10:23:17.605Z,89.15
2023-11-30T10:25:47.769Z,89.45
2023-11-30T10:28:15.739Z,88.75
2023-11-30T10:30:45.070Z,89.50
2023-11-30T10:33:23.443Z,89.38
2023-11-30T10:35:53.207Z,89.11
2023-11-30T10:38:34.182Z,89.77
2023-11-30T10:41:06.018Z,88.71
2023-11-30T10:43:36.942Z,89.47
2023-11-30T10:46:08.770Z,89.02
2023-11-30T10:48:40.249Z,88.81
2023-11-30T10:51:08.937Z,89.13
2023-11-30T10:54:02.599Z,89.14
2023-11-30T10:56:31.114Z,89.08
2023-11-30T10:59:01.605Z,90.09
2023-11-30T11:01:36.928Z,89.43
2023-11-30T11:04:09.855Z,89.33
2023-11-30T11:06:37.507Z,89.33
2023-11-30T11:09:09.058Z,90.19
2023-11-30T11:11:41.002Z,89.93
2023-11-30T11:14:08.720Z,89.80
2023-11-30T11:16:43.264Z,89.38
2023-11-30T11:19:10.806Z,89.32
2023-11-30T11:21:40.057Z,89.95
2023-11-30T11:24:09.265Z,89.76
2023-11-30T11:26:47.957Z,89.21
2023-11-30T11:29:21.488Z,89.78
2023-11-30T11:31:55.579Z,89.13
2023-11-30T11:34:23.042Z,89.33
2023-11-30T11:36:50.625Z,89.36
2023-11-30T11:39:18.179Z,89.78
2023-11-30T11:41:51.376Z,89.73
2023-11-30T11:44:19.189Z,89.20
2023-11-30T11:46:47.234Z,88.81
2023-11-30T11:49:14.846Z,89.07
2023-11-30T11:51:46.799Z,89.00
2023-11-30T11:54:22.150Z,89.69
2023-11-30T11:56:53.875Z,88.48
2023-11-30T11:59:28.943Z,88.80
2023-11-30T12:01:59.419Z,89.88
2023-11-30T12:04:32.201Z,89.44
2023-11-30T12:07:00.779Z,88.65
2023-11-30T12:09:28.126Z,88.58
2023-11-30T12:11:57.944Z,88.25
2023-11-30T12:14:25.316Z,88.71
2023-11-30T12:16:53.518Z,88.84
2023-11-30T12:19:21.395Z,88.63
2023-11-30T12:21:48.895Z,88.29
2023-11-30T12:24:16.476Z,88.36
2023-11-30T12:26:43.868Z,89.13
2023-11-30T12:29:11.628Z,88.77
2023-11-30T12:31:38.947Z,89.06
2023-11-30T12:34:07.614Z,88.39
2023-11-30T12:36:35.402Z,88.53
2023-11-30T12:39:25.144Z,88.88
2023-11-30T12:41:52.692Z,88.73
2023-11-30T12:44:21.303Z,87.58
2023-11-30T12:46:50.084Z,88.42
2023-11-30T12:52:53.610Z,87.76
2023-11-30T12:55:21.460Z,88.44
2023-11-30T12:57:49.148Z,88.09
2023-11-30T13:00:17.128Z,88.48
2023-11-30T13:02:47.302Z,88.80
2023-11-30T13:05:15.753Z,88.25
2023-11-30T13:07:43.351Z,88.73
2023-11-30T13:10:14.829Z,89.24
2023-11-30T13:12:43.123Z,88.34
2023-11-30T13:15:13.781Z,88.02
2023-11-30T13:17:41.799Z,88.77
2023-11-30T13:20:15.143Z,88.58
2023-11-30T13:22:47.399Z,88.59
2023-11-30T13:25:15.740Z,89.54
2023-11-30T13:27:47.674Z,88.42
2023-11-30T13:30:17.429Z,88.98
2023-11-30T13:32:45.200Z,89.41
2023-11-30T13:35:12.604Z,88.21
2023-11-30T13:37:40.529Z,88.10
2023-11-30T13:40:09.237Z,88.35
2023-11-30T13:42:36.801Z,89.51
2023-11-30T13:45:06.887Z,89.40
2023-11-30T13:47:34.551Z,88.47
2023-11-30T13:50:01.849Z,89.40
2023-11-30T13:52:29.329Z,88.62
2023-11-30T13:54:56.711Z,88.96
2023-11-30T13:57:24.111Z,88.64
2023-11-30T13:59:51.743Z,89.22
2023-11-30T14:02:19.556Z,88.27
2023-11-30T14:04:47.738Z,89.19
2023-11-30T14:07:15.130Z,88.24
2023-11-30T14:09:42.446Z,89.12
2023-11-30T14:12:10.002Z,89.19
2023-11-30T14:14:39.493Z,89.04
2023-11-30T14:17:07.572Z,89.81
2023-11-30T14:19:35.010Z,89.60
2023-11-30T14:22:02.552Z,89.46
2023-11-30T14:24:31.237Z,89.39
2023-11-30T14:26:58.620Z,89.61
2023-11-30T14:29:26.058Z,89.01
2023-11-30T14:31:53.856Z,89.17
2023-11-30T14:34:21.570Z,89.61
2023-11-30T14:36:48.825Z,88.64
2023-11-30T14:39:16.176Z,89.41
2023-11-30T14:41:43.573Z,89.57
2023-11-30T14:44:12.293Z,89.76
2023-11-30T14:46:40.110Z,89.82
2023-11-30T14:49:07.551Z,89.00
2023-11-30T14:51:35.010Z,89.21
2023-11-30T14:54:05.471Z,89.76
2023-11-30T14:56:33.590Z,88.96
2023-11-30T14:59:01.457Z,89.91
2023-11-30T15:01:28.925Z,89.33
2023-11-30T15:03:56.456Z,88.96
2023-11-30T15:06:24.663Z,88.55
2023-11-30T15:08:53.068Z,89.19
2023-11-30T15:11:20.411Z,88.57
2023-11-30T15:13:47.708Z,88.91
2023-11-30T15:16:15.071Z,88.82
2023-11-30T15:18:42.494Z,89.11
2023-11-30T15:21:10.034Z,89.21
2023-11-30T15:23:37.406Z,89.27
2023-11-30T15:26:04.814Z,88.87
2023-11-30T15:28:32.204Z,90.05
2023-11-30T15:30:59.988Z,89.30
2023-11-30T15:33:27.976Z,89.71
2023-11-30T15:35:55.381Z,88.89
2023-11-30T15:38:31.182Z,89.47
2023-11-30T15:40:58.953Z,89.79
2023-11-30T15:43:26.501Z,89.32
2023-11-30T15:45:53.982Z,88.67
2023-11-30T15:48:22.793Z,88.83
2023-11-30T15:50:50.191Z,89.38
2023-11-30T15:53:17.902Z,88.88
2023-11-30T15:55:45.100Z,89.82
2023-11-30T15:58:12.478Z,89.47
2023-11-30T16:00:39.997Z,88.94
2023-11-30T16:03:09.087Z,89.72
2023-11-30T16:05:38.266Z,89.32
2023-11-30T16:08:05.561Z,89.31
2023-11-30T16:10:33.119Z,89.32
2023-11-30T16:13:00.451Z,89.40
2023-11-30T16:15:28.975Z,89.41
2023-11-30T16:17:56.719Z,88.84
2023-11-30T16:20:23.861Z,88.58
2023-11-30T16:22:51.276Z,88.88
2023-11-30T16:25:18.663Z,88.97
2023-11-30T16:27:46.050Z,88.96
2023-11-30T16:30:13.950Z,89.71
2023-11-30T16:32:41.519Z,88.85
2023-11-30T16:35:09.280Z,89.02
2023-11-30T16:37:36.634Z,89.01
2023-11-30T16:40:06.041Z,89.00
2023-11-30T16:42:33.472Z,88.79
2023-11-30T16:45:00.823Z,88.83
2023-11-30T16:47:28.293Z,88.71
2023-11-30T16:49:55.629Z,88.28
2023-11-30T16:52:23.049Z,89.09
2023-11-30T16:54:50.564Z,89.03
2023-11-30T16:57:17.970Z,88.70
2023-11-30T16:59:45.393Z,88.32
2023-11-30T17:02:12.771Z,88.29
2023-11-30T17:04:40.189Z,88.01
2023-11-30T17:07:07.568Z,88.92
2023-11-30T17:09:34.966Z,88.74
2023-11-30T17:12:02.321Z,88.28
2023-11-30T17:14:29.696Z,88.65
2023-11-30T17:16:57.101Z,88.81
2023-11-30T17:19:24.496Z,87.97
2023-11-30T17:21:53.567Z,88.31
2023-11-30T17:24:21.056Z,88.56
2023-11-30T17:26:48.814Z,88.48
2023-11-30T17:29:15.886Z,89.38
2023-11-30T17:31:43.209Z,88.27
2023-11-30T17:34:10.732Z,87.64
2023-11-30T17:36:38.047Z,87.18
2023-11-30T17:39:06.427Z,87.43
2023-11-30T17:41:33.736Z,87.61
2023-11-30T17:44:01.018Z,87.46
2023-11-30T17:46:28.377Z,88.32
2023-11-30T17:48:55.729Z,88.07
2023-11-30T17:51:23.166Z,87.41
2023-11-30T17:53:50.764Z,87.78
2023-11-30T17:56:18.063Z,88.51
2023-11-30T17:58:45.367Z,88.39
2023-11-30T18:01:12.758Z,88.56
2023-11-30T18:03:40.148Z,87.74
2023-11-30T18:06:10.686Z,88.86
2023-11-30T18:09:54.303Z,87.89
2023-11-30T18:14:38.772Z,88.34
2023-11-30T18:17:06.802Z,88.08
2023-11-30T18:19:34.296Z,88.14
2023-11-30T18:23:08.587Z,87.63
2023-11-30T18:25:36.011Z,88.20
2023-11-30T18:28:03.809Z,87.84
2023-11-30T18:30:31.784Z,88.46
2023-11-30T18:32:59.357Z,87.82
2023-11-30T18:35:26.929Z,87.46
2023-11-30T18:37:54.458Z,88.02
2023-11-30T18:41:30.662Z,87.34
2023-11-30T18:43:58.420Z,87.45
2023-11-30T18:48:05.558Z,88.54
2023-11-30T18:50:32.967Z,87.75
2023-11-30T18:53:00.415Z,88.59
2023-11-30T18:55:27.921Z,87.94
2023-11-30T18:57:55.531Z,88.13
2023-11-30T19:00:23.124Z,87.84
2023-11-30T19:02:51.089Z,87.93
2023-11-30T19:05:18.816Z,88.98
2023-11-30T19:08:40.066Z,87.99
2023-11-30T19:11:08.599Z,87.82
2023-11-30T19:13:36.725Z,88.15
2023-11-30T19:16:04.480Z,88.11
2023-11-30T19:20:48.775Z,87.53
2023-11-30T19:23:16.046Z,87.90
2023-11-30T19:25:44.641Z,88.42
2023-11-30T19:28:12.006Z,87.74
2023-11-30T19:30:39.356Z,87.80
2023-11-30T19:33:06.791Z,88.59
2023-11-30T19:35:34.993Z,87.67
2023-11-30T19:38:02.422Z,88.01
2023-11-30T19:40:29.734Z,87.38
2023-11-30T19:42:57.891Z,87.43
2023-11-30T19:45:25.540Z,87.57
2023-11-30T19:47:53.189Z,87.83
2023-11-30T19:50:20.614Z,87.10
2023-11-30T19:52:48.087Z,87.50
2023-11-30T19:55:15.423Z,87.55
2023-11-30T19:57:42.812Z,87.37
2023-11-30T20:00:10.683Z,87.65
2023-11-30T20:02:37.929Z,87.73
2023-11-30T20:05:05.575Z,87.82
2023-11-30T20:07:32.918Z,87.76
2023-11-30T20:10:00.351Z,87.36
2023-11-30T20:12:27.925Z,87.99
2023-11-30T20:14:55.258Z,87.25
2023-11-30T20:17:22.545Z,87.95
2023-11-30T20:19:49.894Z,88.36
2023-11-30T20:22:17.204Z,87.57
2023-11-30T20:24:44.724Z,88.08
2023-11-30T20:27:12.236Z,87.05
2023-11-30T20:29:39.543Z,87.56
2023-11-30T20:32:07.219Z,87.63
2023-11-30T20:34:34.557Z,87.26
2023-11-30T20:37:01.919Z,86.86
2023-11-30T20:39:29.554Z,87.09
2023-11-30T20:41:57.014Z,87.11
2023-11-30T20:44:24.840Z,86.76
2023-11-30T20:46:51.988Z,87.38
2023-11-30T20:49:19.449Z,87.62
2023-11-30T20:51:46.770Z,85.73
2023-11-30T20:54:14.084Z,86.63
2023-11-30T20:56:41.618Z,85.70
2023-11-30T20:59:08.978Z,84.83
2023-11-30T21:01:36.480Z,84.62
2023-11-30T21:04:04.258Z,82.16
2023-11-30T21:06:31.649Z,84.04
2023-11-30T21:08:59.180Z,84.62
2023-11-30T21:11:26.570Z,85.69
2023-11-30T21:13:54.130Z,85.43
2023-11-30T21:16:22.372Z,85.15
2023-11-30T21:18:51.734Z,85.23
2023-11-30T21:21:19.289Z,84.99
2023-11-30T21:23:46.681Z,84.63
2023-11-30T21:26:14.056Z,85.19
2023-11-30T21:28:41.368Z,84.88
2023-11-30T21:31:10.741Z,85.02
2023-11-30T21:33:38.308Z,84.34
2023-11-30T21:36:06.135Z,84.88
2023-11-30T21:38:33.318Z,85.03
2023-11-30T21:41:00.649Z,85.33
2023-11-30T21:43:27.964Z,86.06
2023-11-30T21:45:55.315Z,84.96
2023-11-30T21:48:22.802Z,83.47
2023-11-30T21:50:50.153Z,84.30
2023-11-30T21:53:17.434Z,83.62
2023-11-30T21:55:45.014Z,84.32
2023-11-30T21:58:12.386Z,84.02
2023-11-30T22:00:39.941Z,84.62
2023-11-30T22:03:07.526Z,83.38
2023-11-30T22:05:37.182Z,82.59
2023-11-30T22:08:08.111Z,82.45
2023-11-30T22:10:35.465Z,84.08
2023-11-30T22:13:03.250Z,83.65
2023-11-30T22:15:30.843Z,84.48
2023-11-30T22:18:00.084Z,84.40
2023-11-30T22:20:27.592Z,84.86
2023-11-30T22:22:55.278Z,84.36
2023-11-30T22:25:24.149Z,84.75
2023-11-30T22:27:51.566Z,85.18
2023-11-30T22:30:18.948Z,84.60
2023-11-30T22:32:46.473Z,84.23
2023-11-30T22:35:13.908Z,82.46
2023-11-30T22:37:41.435Z,79.26
2023-11-30T22:40:09.333Z,80.42
2023-11-30T22:42:36.694Z,81.41
2023-11-30T22:45:04.749Z,82.03
2023-11-30T22:47:34.593Z,82.08
2023-11-30T22:50:01.955Z,82.50
2023-11-30T22:52:29.462Z,82.51
2023-11-30T22:54:57.176Z,82.92
2023-11-30T22:57:25.042Z,82.02
2023-11-30T22:59:52.417Z,78.67
2023-11-30T23:02:21.770Z,79.80
2023-11-30T23:04:49.493Z,80.14
2023-11-30T23:07:17.421Z,79.79
2023-11-30T23:09:44.760Z,79.51
2023-11-30T23:12:12.913Z,81.59
2023-11-30T23:14:40.817Z,81.85
2023-11-30T23:17:11.766Z,81.87
2023-11-30T23:19:39.473Z,81.42
2023-11-30T23:22:07.851Z,81.11
2023-11-30T23:24:35.409Z,80.91
2023-11-30T23:27:02.982Z,79.67
2023-11-30T23:29:30.572Z,80.48
2023-11-30T23:31:57.906Z,79.51
2023-11-30T23:34:25.226Z,78.83
2023-11-30T23:36:52.705Z,79.12
2023-11-30T23:39:20.125Z,79.37
2023-11-30T23:41:47.644Z,79.12
2023-11-30T23:44:15.255Z,78.77
2023-11-30T23:46:42.702Z,77.54
2023-11-30T23:49:10.215Z,76.54
2023-11-30T23:51:37.690Z,77.44
2023-11-30T23:54:05.076Z,76.62
2023-11-30T23:56:32.655Z,76.88
2023-11-30T23:59:00.038Z,77.06
